Time;durP1;ratioP1;P1;durP2;ratioP2;P2;SDS_P1;SDS_P2;PMS_P1;PMS_P2;Temp;Humidity;BMP_temperature;BMP_pressure;BME280_temperature;BME280_humidity;BME280_pressure;Samples;Min_cycle;Max_cycle;Signal;HPM_P1;HPM_P2
2024/02/18 00:00:51;;;;;;;11.52;2.20;;;;;;;10.44;100.00;101608.28;5098863;28;20023;-73
2024/02/18 00:03:17;;;;;;;10.20;2.88;;;;;;;10.37;100.00;101608.03;5082120;28;20426;-75
2024/02/18 00:05:43;;;;;;;11.45;2.47;;;;;;;10.30;100.00;101618.59;5082255;28;20039;-74
2024/02/18 00:08:08;;;;;;;14.77;2.75;;;;;;;10.19;100.00;101610.72;5098878;28;20030;-73
2024/02/18 00:10:34;;;;;;;12.13;2.70;;;;;;;10.16;100.00;101607.47;5082044;28;20150;-75
2024/02/18 00:13:00;;;;;;;5.78;2.58;;;;;;;10.20;100.00;101612.41;5082050;28;20035;-76
2024/02/18 00:15:25;;;;;;;13.70;2.60;;;;;;;10.23;100.00;101606.72;5082031;28;20028;-75
2024/02/18 00:17:51;;;;;;;21.10;3.58;;;;;;;10.22;100.00;101607.72;5081989;28;20034;-75
2024/02/18 00:20:17;;;;;;;23.17;3.67;;;;;;;10.25;100.00;101603.88;5082163;28;20036;-73
2024/02/18 00:22:42;;;;;;;18.02;4.35;;;;;;;10.25;100.00;101603.88;5080964;28;20483;-75
2024/02/18 00:25:08;;;;;;;18.00;3.40;;;;;;;10.30;100.00;101607.00;5081399;28;20035;-75
2024/02/18 00:27:34;;;;;;;11.93;3.03;;;;;;;10.36;100.00;101611.75;5081816;28;20039;-75
2024/02/18 00:30:00;;;;;;;14.30;3.38;;;;;;;10.42;100.00;101611.13;5081712;28;20040;-73
2024/02/18 00:32:26;;;;;;;9.68;3.05;;;;;;;10.45;100.00;101607.28;5115315;28;20091;-75
2024/02/18 00:34:51;;;;;;;18.05;3.78;;;;;;;10.44;100.00;101601.06;5081481;28;20020;-74
2024/02/18 00:37:20;;;;;;;14.23;3.35;;;;;;;10.45;100.00;101605.47;5098063;28;20034;-75
2024/02/18 00:39:46;;;;;;;5.90;2.65;;;;;;;10.43;100.00;101601.25;5115246;28;20039;-73
2024/02/18 00:42:11;;;;;;;20.70;3.47;;;;;;;10.42;100.00;101597.69;5081622;28;20039;-75
2024/02/18 00:44:37;;;;;;;6.00;2.08;;;;;;;10.38;100.00;101593.63;5081301;28;20035;-73
2024/02/18 00:47:04;;;;;;;15.75;3.10;;;;;;;10.31;100.00;101603.28;5081356;28;20039;-73
2024/02/18 00:49:31;;;;;;;13.82;2.92;;;;;;;10.25;100.00;101604.72;5098375;28;20080;-73
2024/02/18 00:51:58;;;;;;;19.25;3.78;;;;;;;10.18;100.00;101598.25;5098225;28;20032;-74
2024/02/18 00:54:23;;;;;;;13.73;3.25;;;;;;;10.19;100.00;101610.72;5097608;28;20028;-74
2024/02/18 00:56:50;;;;;;;20.50;3.80;;;;;;;10.19;100.00;101604.47;5081181;28;20126;-74
2024/02/18 00:59:16;;;;;;;17.00;3.22;;;;;;;10.21;100.00;101603.31;5081221;28;20037;-74
2024/02/18 01:01:42;;;;;;;18.58;2.75;;;;;;;10.22;100.00;101599.66;5098014;28;20471;-74
2024/02/18 01:04:08;;;;;;;12.80;3.38;;;;;;;10.24;100.00;101599.50;5080835;28;20072;-74
2024/02/18 01:06:36;;;;;;;16.27;3.05;;;;;;;10.26;100.00;101594.81;5114559;28;20144;-74
2024/02/18 01:09:02;;;;;;;19.20;3.75;;;;;;;10.24;100.00;101600.34;5081215;28;20032;-73
2024/02/18 01:11:29;;;;;;;12.35;2.70;;;;;;;10.17;100.00;101595.75;5080705;28;20042;-76
2024/02/18 01:13:55;;;;;;;17.15;2.95;;;;;;;10.04;100.00;101586.19;5080406;28;20032;-73
2024/02/18 01:16:21;;;;;;;19.05;2.85;;;;;;;9.86;100.00;101582.66;5114211;28;20101;-75
2024/02/18 01:18:46;;;;;;;13.23;3.28;;;;;;;9.68;100.00;101590.66;5080459;28;20472;-75
2024/02/18 01:21:13;;;;;;;15.45;2.97;;;;;;;9.58;100.00;101588.03;5080929;28;20449;-73
2024/02/18 01:23:38;;;;;;;7.70;2.65;;;;;;;9.63;100.00;101591.13;5079808;28;20067;-73
2024/02/18 01:26:05;;;;;;;15.88;3.50;;;;;;;9.73;100.00;101585.69;5080688;28;20379;-73
2024/02/18 01:28:31;;;;;;;15.82;3.45;;;;;;;9.72;100.00;101594.75;5080596;28;20472;-75
2024/02/18 01:30:56;;;;;;;15.15;3.38;;;;;;;9.74;100.00;101586.53;5080510;28;20038;-76
2024/02/18 01:33:23;;;;;;;13.68;3.10;;;;;;;9.69;100.00;101581.63;5080518;28;20035;-76
2024/02/18 01:35:50;;;;;;;7.40;2.80;;;;;;;9.57;100.00;101590.88;5080251;28;20039;-74
2024/02/18 01:38:16;;;;;;;10.45;2.92;;;;;;;9.45;100.00;101600.97;5079944;28;20044;-74
2024/02/18 01:40:42;;;;;;;24.10;3.50;;;;;;;9.40;100.00;101593.34;5096771;28;20039;-74
2024/02/18 01:43:07;;;;;;;12.13;3.05;;;;;;;9.38;100.00;101595.31;5080234;28;20036;-74
2024/02/18 01:45:33;;;;;;;11.40;3.65;;;;;;;9.32;100.00;101593.25;5080165;28;20038;-74
2024/02/18 01:47:59;;;;;;;10.80;3.70;;;;;;;9.27;100.00;101597.38;5080367;28;20110;-74
2024/02/18 01:50:25;;;;;;;18.35;4.78;;;;;;;9.27;100.00;101586.63;5113552;28;20491;-74
2024/02/18 01:52:52;;;;;;;20.45;4.72;;;;;;;9.23;100.00;101586.94;5080161;28;20043;-74
2024/02/18 01:55:20;;;;;;;22.27;4.85;;;;;;;9.21;100.00;101586.22;5097058;28;20039;-74
2024/02/18 01:57:46;;;;;;;13.35;4.45;;;;;;;9.23;100.00;101586.06;5096240;28;20391;-75
2024/02/18 02:00:14;;;;;;;13.48;3.83;;;;;;;9.23;100.00;101591.41;5079996;28;20046;-74
2024/02/18 02:02:45;;;;;;;16.60;3.55;;;;;;;9.35;100.00;101584.88;5079947;28;20042;-74
2024/02/18 02:05:13;;;;;;;15.63;3.20;;;;;;;9.46;100.00;101589.22;5079762;28;20045;-74
2024/02/18 02:07:39;;;;;;;16.35;4.50;;;;;;;9.48;100.00;101578.34;5113527;28;20072;-74
2024/02/18 02:10:11;;;;;;;20.63;4.10;;;;;;;9.58;100.00;101576.44;5063054;28;20027;-74
2024/02/18 02:12:38;;;;;;;;;;;;;;;9.63;100.00;101591.13;5082111;28;20105;-74
2024/02/18 02:15:05;;;;;;;12.48;4.05;;;;;;;9.67;100.00;101591.66;5096208;28;19911;-74
2024/02/18 02:17:31;;;;;;;12.68;5.00;;;;;;;9.70;100.00;101599.41;5079386;28;20080;-74
2024/02/18 02:19:56;;;;;;;20.20;5.85;;;;;;;9.80;100.00;101591.31;5079975;28;20027;-74
2024/02/18 02:22:22;;;;;;;21.15;5.93;;;;;;;9.83;100.00;101593.69;5079391;28;20506;-74
2024/02/18 02:24:48;;;;;;;13.15;3.63;;;;;;;9.83;100.00;101596.38;5079469;28;20042;-74
2024/02/18 02:27:17;;;;;;;10.52;3.45;;;;;;;9.80;100.00;101592.16;5079134;28;20091;-75
2024/02/18 02:29:43;;;;;;;18.75;3.20;;;;;;;9.79;100.00;101590.47;5079925;28;20483;-74
2024/02/18 02:32:09;;;;;;;10.43;3.53;;;;;;;9.78;100.00;101590.63;5096745;28;20028;-75
2024/02/18 02:34:35;;;;;;;14.18;3.30;;;;;;;9.78;100.00;101593.31;5095980;28;20043;-74
2024/02/18 02:37:01;;;;;;;10.98;2.70;;;;;;;9.76;100.00;101592.59;5079393;28;20023;-74
2024/02/18 02:39:26;;;;;;;14.85;3.47;;;;;;;9.78;100.00;101596.00;5079330;28;20057;-74
2024/02/18 02:41:52;;;;;;;16.30;3.92;;;;;;;9.76;100.00;101596.13;5079447;28;20047;-74
2024/02/18 02:44:18;;;;;;;13.68;3.88;;;;;;;9.74;100.00;101594.59;5079217;28;20032;-74
2024/02/18 02:46:44;;;;;;;11.30;3.15;;;;;;;9.69;100.00;101601.25;5079763;28;20039;-73
2024/02/18 02:49:10;;;;;;;13.85;2.97;;;;;;;9.63;100.00;101601.00;5079152;28;20124;-74
2024/02/18 02:51:36;;;;;;;18.42;2.55;;;;;;;9.63;100.00;101599.19;5079310;28;20066;-74
2024/02/18 02:54:01;;;;;;;15.52;3.08;;;;;;;9.69;100.00;101603.13;5078913;28;20391;-75
2024/02/18 02:56:27;;;;;;;10.27;3.22;;;;;;;9.76;100.00;101609.56;5078958;28;20132;-74
2024/02/18 02:58:53;;;;;;;15.68;3.20;;;;;;;9.79;100.00;101613.78;5079213;28;20035;-74
2024/02/18 03:01:18;;;;;;;9.77;3.25;;;;;;;9.82;100.00;101617.03;5095793;28;20031;-74
2024/02/18 03:03:44;;;;;;;11.50;2.80;;;;;;;9.83;100.00;101625.94;5079008;28;20031;-74
2024/02/18 03:06:10;;;;;;;14.90;3.60;;;;;;;9.82;100.00;101624.25;5079015;28;20035;-74
2024/02/18 03:08:35;;;;;;;10.45;3.72;;;;;;;9.80;100.00;101624.38;5079110;28;20032;-74
2024/02/18 03:11:01;;;;;;;13.80;3.10;;;;;;;9.83;100.00;101623.25;5079391;28;20106;-74
2024/02/18 03:13:27;;;;;;;15.75;3.33;;;;;;;9.85;100.00;101624.78;5078997;28;20023;-74
2024/02/18 03:15:53;;;;;;;24.42;3.83;;;;;;;9.90;100.00;101629.72;5095892;28;20093;-74
2024/02/18 03:18:19;;;;;;;14.10;3.63;;;;;;;9.91;100.00;101626.88;5112536;28;20024;-74
2024/02/18 03:20:45;;;;;;;16.05;4.05;;;;;;;9.93;100.00;101633.94;5095668;28;20031;-74
2024/02/18 03:23:11;;;;;;;9.63;3.45;;;;;;;9.93;100.00;101626.72;5095895;28;20122;-74
2024/02/18 03:25:38;;;;;;;17.65;3.90;;;;;;;9.94;100.00;101630.25;5079074;28;20123;-74
2024/02/18 03:28:04;;;;;;;16.98;4.32;;;;;;;9.98;100.00;101629.81;5095702;28;20562;-74
2024/02/18 03:30:30;;;;;;;13.55;3.53;;;;;;;10.02;100.00;101630.34;5112272;28;20028;-74
2024/02/18 03:32:56;;;;;;;16.05;3.38;;;;;;;10.05;100.00;101624.66;5095690;28;20433;-74
2024/02/18 03:35:27;;;;;;;18.02;3.85;;;;;;;10.06;100.00;101629.91;5095441;28;20031;-74
2024/02/18 03:37:57;;;;;;;8.00;3.25;;;;;;;10.08;100.00;101638.66;5096408;28;20029;-74
2024/02/18 03:40:23;;;;;;;21.27;4.07;;;;;;;10.07;100.00;101634.25;5079425;28;20073;-74
2024/02/18 03:42:50;;;;;;;16.60;3.65;;;;;;;10.04;100.00;101626.50;5095340;28;20036;-74
2024/02/18 03:45:16;;;;;;;16.95;4.55;;;;;;;10.08;100.00;101629.72;5095168;28;20376;-74
2024/02/18 03:47:43;;;;;;;15.18;4.28;;;;;;;10.07;100.00;101628.03;5078449;28;20084;-74
2024/02/18 03:50:14;;;;;;;14.10;4.13;;;;;;;10.05;100.00;101625.50;5078385;28;20036;-74
2024/02/18 03:52:43;;;;;;;27.23;5.70;;;;;;;10.06;100.00;101626.38;5096176;28;20042;-74
2024/02/18 03:55:13;;;;;;;20.67;4.60;;;;;;;10.05;100.00;101621.97;5078232;28;20076;-74
2024/02/18 03:57:39;;;;;;;21.80;4.85;;;;;;;10.05;100.00;101628.19;5095181;28;20071;-74
2024/02/18 04:00:07;;;;;;;14.30;4.28;;;;;;;10.00;100.00;101625.13;5113537;28;20118;-74
2024/02/18 04:02:40;;;;;;;15.00;4.43;;;;;;;9.99;100.00;101623.44;5081676;28;20533;-74
2024/02/18 04:05:09;;;;;;;13.43;4.82;;;;;;;10.04;100.00;101634.56;5115952;28;20433;-74
2024/02/18 04:07:35;;;;;;;15.50;5.07;;;;;;;10.04;100.00;101633.72;5081968;28;20043;-74
2024/02/18 04:10:03;;;;;;;17.17;4.80;;;;;;;10.07;100.00;101639.63;5082215;28;20032;-74
2024/02/18 04:12:29;;;;;;;21.13;4.82;;;;;;;10.08;100.00;101630.59;5082004;28;20067;-74
2024/02/18 04:14:55;;;;;;;16.67;4.50;;;;;;;10.08;100.00;101630.59;5081543;28;20051;-74
2024/02/18 04:17:20;;;;;;;17.65;4.82;;;;;;;10.09;100.00;101628.75;5081886;28;20105;-74
2024/02/18 04:19:46;;;;;;;17.45;4.20;;;;;;;10.07;100.00;101623.50;5081911;28;20039;-74
2024/02/18 04:22:12;;;;;;;14.52;3.95;;;;;;;10.08;100.00;101638.66;5080642;28;20117;-74
2024/02/18 04:24:40;;;;;;;9.00;3.65;;;;;;;10.09;100.00;101637.66;5081839;28;20070;-74
2024/02/18 04:27:10;;;;;;;11.88;3.97;;;;;;;10.06;100.00;101634.44;5098782;28;20083;-74
2024/02/18 04:29:36;;;;;;;16.55;4.18;;;;;;;10.07;100.00;101645.00;5081471;28;20536;-74
2024/02/18 04:32:02;;;;;;;14.20;4.32;;;;;;;10.08;100.00;101654.78;5081785;28;20181;-74
2024/02/18 04:34:29;;;;;;;15.10;3.85;;;;;;;10.03;100.00;101640.94;5081448;28;20482;-74
2024/02/18 04:36:55;;;;;;;11.50;3.80;;;;;;;9.97;100.00;101649.59;5116385;28;20032;-74
2024/02/18 04:39:20;;;;;;;19.00;4.45;;;;;;;9.95;100.00;101653.41;5098369;28;20040;-74
2024/02/18 04:41:46;;;;;;;12.40;4.13;;;;;;;9.94;100.00;101660.63;5081427;28;20038;-74
2024/02/18 04:44:12;;;;;;;16.15;3.80;;;;;;;9.96;100.00;101664.03;5081328;28;20092;-74
2024/02/18 04:46:37;;;;;;;10.80;3.15;;;;;;;9.94;100.00;101652.59;5081294;28;20028;-74
2024/02/18 04:49:04;;;;;;;11.65;3.72;;;;;;;9.98;100.00;101658.53;5081438;28;20482;-74
2024/02/18 04:51:30;;;;;;;16.00;4.03;;;;;;;9.98;100.00;101653.16;5114603;28;20076;-74
2024/02/18 04:53:56;;;;;;;13.18;3.03;;;;;;;9.99;100.00;101646.78;5098353;28;20023;-74
2024/02/18 04:56:21;;;;;;;14.40;4.28;;;;;;;9.99;100.00;101654.81;5098059;28;20392;-74
2024/02/18 04:58:48;;;;;;;14.18;3.63;;;;;;;9.94;100.00;101647.22;5097815;28;20023;-74
2024/02/18 05:01:13;;;;;;;7.57;3.45;;;;;;;9.91;100.00;101656.41;5114484;28;20035;-74
2024/02/18 05:03:41;;;;;;;15.13;4.97;;;;;;;9.91;100.00;101653.72;5080951;28;20027;-74
2024/02/18 05:06:11;;;;;;;20.60;4.22;;;;;;;9.94;100.00;101660.63;5081320;28;20032;-74
2024/02/18 05:08:37;;;;;;;18.48;3.85;;;;;;;9.95;100.00;101653.41;5080832;28;20051;-74
2024/02/18 05:11:03;;;;;;;13.05;3.33;;;;;;;9.95;100.00;101656.09;5097060;28;20051;-74
2024/02/18 05:13:29;;;;;;;12.13;3.33;;;;;;;9.94;100.00;101657.97;5080293;28;20475;-74
2024/02/18 05:15:56;;;;;;;15.18;4.15;;;;;;;9.95;100.00;101656.09;5097849;28;20463;-74
2024/02/18 05:18:22;;;;;;;9.93;3.33;;;;;;;9.95;100.00;101659.66;5080627;28;20028;-74
2024/02/18 05:20:48;;;;;;;11.57;3.50;;;;;;;9.92;100.00;101662.63;5081324;28;20046;-74
2024/02/18 05:23:13;;;;;;;17.38;3.55;;;;;;;9.96;100.00;101674.78;5097038;28;20459;-74
2024/02/18 05:25:39;;;;;;;22.40;3.72;;;;;;;9.96;100.00;101674.78;5080311;28;20070;-74
2024/02/18 05:28:06;;;;;;;18.08;3.75;;;;;;;9.97;100.00;101681.00;5113962;28;20511;-74
2024/02/18 05:30:32;;;;;;;17.45;4.05;;;;;;;9.95;100.00;101681.16;5080601;28;20034;-74
2024/02/18 05:32:57;;;;;;;16.50;3.90;;;;;;;9.93;100.00;101674.25;5080459;28;20032;-74
2024/02/18 05:35:23;;;;;;;13.57;3.80;;;;;;;9.92;100.00;101681.44;5096762;28;20157;-74
2024/02/18 05:37:49;;;;;;;19.25;3.20;;;;;;;9.90;100.00;101678.91;5079992;28;20067;-74
2024/02/18 05:40:14;;;;;;;11.00;3.03;;;;;;;9.89;100.00;101687.09;5080018;28;20044;-74
2024/02/18 05:42:40;;;;;;;14.00;3.50;;;;;;;9.88;100.00;101688.94;5080201;28;20032;-74
2024/02/18 05:45:06;;;;;;;15.43;2.88;;;;;;;9.92;100.00;101700.22;5080355;28;20078;-74
2024/02/18 05:47:32;;;;;;;10.60;2.90;;;;;;;9.93;100.00;101701.09;5080062;28;20126;-74
2024/02/18 05:49:58;;;;;;;9.95;3.28;;;;;;;9.91;100.00;101704.78;5096126;28;20131;-74
2024/02/18 05:52:24;;;;;;;8.50;3.08;;;;;;;9.92;100.00;101705.59;5079727;28;20059;-74
2024/02/18 05:54:49;;;;;;;17.75;3.20;;;;;;;9.90;100.00;101715.69;5079841;28;20124;-74
2024/02/18 05:57:15;;;;;;;9.90;2.70;;;;;;;9.90;100.00;101723.75;5080153;28;20039;-74
2024/02/18 05:59:41;;;;;;;11.65;2.60;;;;;;;9.91;100.00;101722.72;5079873;28;20475;-74
2024/02/18 06:02:06;;;;;;;1.83;1.02;;;;;;;9.92;100.00;101732.47;5079705;28;20040;-74
2024/02/18 06:04:32;;;;;;;1.73;1.00;;;;;;;9.90;100.00;101732.63;5079502;28;20052;-75
2024/02/18 06:06:58;;;;;;;9.00;2.53;;;;;;;9.92;100.00;101732.47;5096588;28;20085;-74
2024/02/18 06:09:24;;;;;;;5.38;1.55;;;;;;;9.82;100.00;101731.69;5095868;28;20121;-75
2024/02/18 06:11:51;;;;;;;9.10;1.80;;;;;;;9.75;100.00;101735.94;5079600;28;20537;-75
2024/02/18 06:14:18;;;;;;;5.15;1.40;;;;;;;9.68;100.00;101733.84;5096471;28;20061;-75
2024/02/18 06:16:43;;;;;;;1.80;1.27;;;;;;;9.66;100.00;101745.75;5079605;28;20475;-74
2024/02/18 06:19:09;;;;;;;7.43;1.73;;;;;;;9.61;100.00;101746.16;5079610;28;20032;-74
2024/02/18 06:21:35;;;;;;;6.40;1.48;;;;;;;9.58;100.00;101757.19;5079812;28;20108;-74
2024/02/18 06:24:01;;;;;;;5.05;1.42;;;;;;;9.52;100.00;101762.28;5079163;28;20464;-74
2024/02/18 06:26:28;;;;;;;8.73;2.00;;;;;;;9.46;100.00;101771.78;5096215;28;20118;-75
2024/02/18 06:28:57;;;;;;;5.43;1.80;;;;;;;9.39;100.00;101774.19;5096203;28;20092;-73
2024/02/18 06:31:23;;;;;;;6.68;1.75;;;;;;;9.33;100.00;101773.91;5079399;28;20035;-75
2024/02/18 06:33:49;;;;;;;6.88;1.75;;;;;;;9.32;100.00;101772.22;5079173;28;20019;-75
2024/02/18 06:36:15;;;;;;;7.25;1.17;;;;;;;9.35;100.00;101774.63;5079357;28;20126;-75
2024/02/18 06:38:44;;;;;;;8.00;1.77;;;;;;;9.34;100.00;101778.28;5079320;28;20118;-75
2024/02/18 06:41:11;;;;;;;7.57;1.70;;;;;;;9.24;100.00;101776.47;5096818;28;20035;-75
2024/02/18 06:43:36;;;;;;;11.65;1.80;;;;;;;9.03;100.00;101775.75;5079411;28;20092;-75
2024/02/18 06:46:04;;;;;;;6.75;1.45;;;;;;;8.85;100.00;101775.59;5095595;28;20070;-75
2024/02/18 06:48:30;;;;;;;6.45;1.90;;;;;;;8.79;100.00;101787.72;5079083;28;20479;-75
2024/02/18 06:50:56;;;;;;;7.88;1.60;;;;;;;8.82;100.00;101785.75;5079217;28;20035;-75
2024/02/18 06:53:22;;;;;;;8.40;1.52;;;;;;;8.90;100.00;101791.28;5112410;28;20024;-75
2024/02/18 06:55:48;;;;;;;12.55;1.75;;;;;;;8.98;100.00;101805.69;5079231;28;20036;-75
2024/02/18 06:58:16;;;;;;;5.80;1.48;;;;;;;9.06;100.00;101810.34;5079354;28;20038;-74
2024/02/18 07:00:41;;;;;;;8.63;1.88;;;;;;;9.14;100.00;101812.34;5095723;28;20081;-74
2024/02/18 07:03:07;;;;;;;14.63;2.42;;;;;;;9.17;100.00;101818.25;5079053;28;20035;-74
2024/02/18 07:05:33;;;;;;;9.98;1.83;;;;;;;9.14;100.00;101817.69;5079003;28;20039;-74
2024/02/18 07:07:59;;;;;;;11.27;1.77;;;;;;;9.13;100.00;101818.66;5079011;28;20038;-74
2024/02/18 07:10:25;;;;;;;9.23;2.08;;;;;;;9.11;100.00;101816.16;5079058;28;20032;-74
2024/02/18 07:12:51;;;;;;;15.68;2.33;;;;;;;9.10;100.00;101825.16;5095669;28;20118;-75
2024/02/18 07:15:17;;;;;;;7.07;2.17;;;;;;;9.06;100.00;101815.72;5078711;28;20115;-74
2024/02/18 07:17:43;;;;;;;19.88;2.60;;;;;;;9.02;100.00;101825.88;5112113;28;20493;-75
2024/02/18 07:20:09;;;;;;;13.27;2.10;;;;;;;9.06;100.00;101830.97;5079022;28;20035;-74
2024/02/18 07:22:35;;;;;;;12.93;2.33;;;;;;;9.11;100.00;101834.09;5095821;28;20036;-74
2024/02/18 07:25:02;;;;;;;13.95;2.30;;;;;;;9.13;100.00;101840.13;5078961;28;20417;-74
2024/02/18 07:27:28;;;;;;;7.70;2.00;;;;;;;9.15;100.00;101839.00;5079377;28;20031;-74
2024/02/18 07:29:53;;;;;;;18.83;2.78;;;;;;;9.15;100.00;101849.75;5078544;28;20058;-75
2024/02/18 07:32:19;;;;;;;9.10;2.05;;;;;;;9.16;100.00;101854.13;5079568;28;20028;-75
2024/02/18 07:34:45;;;;;;;12.82;2.05;;;;;;;9.15;100.00;101854.25;5096329;28;20403;-74
2024/02/18 07:37:11;;;;;;;6.82;1.95;;;;;;;9.15;100.00;101855.09;5082799;28;20536;-74
2024/02/18 07:39:36;;;;;;;8.38;1.95;;;;;;;9.16;100.00;101862.19;5082810;28;20046;-74
2024/02/18 07:42:02;;;;;;;10.63;2.10;;;;;;;9.17;100.00;101871.91;5083058;28;20046;-74
2024/02/18 07:44:28;;;;;;;10.73;2.17;;;;;;;9.18;100.00;101878.13;5082628;28;20383;-74
2024/02/18 07:46:57;;;;;;;13.20;1.83;;;;;;;9.18;100.00;101879.00;5082584;28;20051;-75
2024/02/18 07:49:23;;;;;;;10.48;2.17;;;;;;;9.19;100.00;101879.84;5082952;28;20054;-74
2024/02/18 07:51:49;;;;;;;11.38;1.60;;;;;;;9.20;100.00;101892.25;5082520;28;20043;-75
2024/02/18 07:54:16;;;;;;;5.00;1.52;;;;;;;9.18;100.00;101880.81;5098979;28;20031;-75
2024/02/18 07:56:46;;;;;;;10.32;1.95;;;;;;;9.17;100.00;101882.66;5082310;28;20568;-75
2024/02/18 07:59:12;;;;;;;6.40;1.63;;;;;;;9.17;100.00;101884.50;5081948;28;20036;-74
2024/02/18 08:01:38;;;;;;;12.38;2.35;;;;;;;9.18;100.00;101892.41;5099076;28;20072;-74
2024/02/18 08:04:04;;;;;;;12.38;2.05;;;;;;;9.22;100.00;101885.78;5081997;28;20043;-74
2024/02/18 08:06:31;;;;;;;6.63;1.73;;;;;;;9.23;100.00;101895.53;5115538;28;20035;-74
2024/02/18 08:08:58;;;;;;;5.07;1.65;;;;;;;9.25;100.00;101895.38;5081733;28;20049;-74
2024/02/18 08:11:24;;;;;;;5.10;1.58;;;;;;;9.29;100.00;101901.31;5099060;28;20055;-74
2024/02/18 08:13:49;;;;;;;8.52;1.60;;;;;;;9.31;100.00;101918.97;5115305;28;20432;-74
2024/02/18 08:16:15;;;;;;;9.85;1.73;;;;;;;9.32;100.00;101923.38;5081909;28;20479;-74
2024/02/18 08:18:41;;;;;;;16.40;1.73;;;;;;;9.37;100.00;101928.31;5080975;28;20042;-75
2024/02/18 08:21:06;;;;;;;2.95;1.85;;;;;;;9.42;100.00;101932.28;5098653;28;20020;-76
2024/02/18 08:23:32;;;;;;;11.98;1.92;;;;;;;9.53;100.00;101930.47;5081374;28;20114;-76
2024/02/18 08:25:58;;;;;;;7.70;1.80;;;;;;;9.59;100.00;101940.63;5080718;28;20410;-75
2024/02/18 08:28:24;;;;;;;15.35;1.85;;;;;;;9.62;100.00;101924.25;5080760;28;20042;-75
2024/02/18 08:30:49;;;;;;;4.60;1.98;;;;;;;9.68;100.00;101931.72;5081279;28;20027;-74
2024/02/18 08:33:15;;;;;;;8.60;1.60;;;;;;;9.71;100.00;101920.69;5081460;28;20039;-75
2024/02/18 08:35:41;;;;;;;9.27;2.22;;;;;;;9.79;100.00;101938.78;5081034;28;20024;-75
2024/02/18 08:38:07;;;;;;;13.32;1.95;;;;;;;9.80;100.00;101953.94;5114961;28;20036;-75
2024/02/18 08:40:33;;;;;;;4.32;1.40;;;;;;;9.78;100.00;101954.06;5081065;28;20089;-75
2024/02/18 08:42:58;;;;;;;9.30;1.98;;;;;;;9.79;100.00;101963.84;5081258;28;20068;-74
2024/02/18 08:45:24;;;;;;;6.30;2.00;;;;;;;9.82;100.00;101965.38;5081231;28;20027;-75
2024/02/18 08:47:50;;;;;;;3.05;1.20;;;;;;;9.87;100.00;101965.78;5081252;28;20039;-75
2024/02/18 08:50:16;;;;;;;6.78;1.55;;;;;;;9.91;100.00;101972.59;5081340;28;20130;-74
2024/02/18 08:52:42;;;;;;;5.05;1.45;;;;;;;9.98;100.00;101986.31;5081266;28;20429;-75
2024/02/18 08:55:08;;;;;;;12.07;1.70;;;;;;;10.02;100.00;101993.94;5080859;28;20039;-75
2024/02/18 08:57:34;;;;;;;8.05;1.30;;;;;;;10.07;100.00;101998.88;5081336;28;20035;-74
2024/02/18 09:00:02;;;;;;;9.75;1.60;;;;;;;10.09;100.00;102005.81;5081081;28;20122;-75
2024/02/18 09:02:28;;;;;;;2.97;1.52;;;;;;;10.09;100.00;102008.50;5097589;28;20031;-75
2024/02/18 09:04:53;;;;;;;10.13;1.60;;;;;;;10.07;100.00;102023.91;5080618;28;20050;-77
2024/02/18 09:07:19;;;;;;;4.43;1.27;;;;;;;10.09;100.00;102031.84;5096970;28;20111;-75
2024/02/18 09:09:45;;;;;;;8.63;1.60;;;;;;;10.17;100.00;102034.66;5097116;28;20048;-74
2024/02/18 09:12:11;;;;;;;10.52;2.10;;;;;;;10.27;100.00;102056.19;5080404;28;20028;-74
2024/02/18 09:14:37;;;;;;;4.93;1.40;;;;;;;10.31;100.00;102069.22;5080439;28;20035;-75
2024/02/18 09:17:02;;;;;;;4.20;1.42;;;;;;;10.33;100.00;102069.91;5080384;28;20045;-75
2024/02/18 09:19:28;;;;;;;8.32;1.67;;;;;;;10.34;100.00;102066.22;5080515;28;20046;-74
2024/02/18 09:21:54;;;;;;;7.50;1.52;;;;;;;10.36;100.00;102068.78;5080692;28;20027;-75
2024/02/18 09:24:19;;;;;;;8.32;2.00;;;;;;;10.38;100.00;102074.88;5080389;28;20180;-75
2024/02/18 09:26:45;;;;;;;5.80;1.25;;;;;;;10.40;100.00;102080.97;5080373;28;20031;-76
2024/02/18 09:29:11;;;;;;;9.43;1.60;;;;;;;10.47;100.00;102082.06;5097233;28;20027;-76
2024/02/18 09:31:47;;;;;;;4.97;1.27;;;;;;;10.52;100.00;102090.56;5080574;28;20040;-76
2024/02/18 09:34:12;;;;;;;3.05;1.65;;;;;;;10.53;100.00;102097.66;5080479;28;20157;-75
2024/02/18 09:36:38;;;;;;;10.40;1.52;;;;;;;10.55;100.00;102108.25;5080370;28;20122;-76
2024/02/18 09:39:04;;;;;;;3.90;1.25;;;;;;;10.69;100.00;102105.16;5096749;28;20035;-75
2024/02/18 09:41:30;;;;;;;3.28;1.02;;;;;;;10.88;100.00;102122.25;5080954;28;20050;-76
2024/02/18 09:44:05;;;;;;;3.92;1.20;;;;;;;11.12;100.00;102111.00;5080225;28;20554;-76
2024/02/18 09:46:36;;;;;;;5.40;1.30;;;;;;;11.31;100.00;102110.94;5097296;28;20031;-76
2024/02/18 09:49:05;;;;;;;8.75;1.50;;;;;;;11.30;100.00;102111.06;5097333;28;20031;-76
2024/02/18 09:51:37;;;;;;;10.27;1.55;;;;;;;11.35;100.00;102108.78;5080810;28;20100;-76
2024/02/18 09:54:10;;;;;;;7.63;1.65;;;;;;;11.45;100.00;102099.66;5080489;28;20481;-76
2024/02/18 09:56:36;;;;;;;0.82;0.82;;;;;;;11.52;100.00;102101.78;5096549;28;20031;-76
2024/02/18 09:59:02;;;;;;;5.28;1.25;;;;;;;11.59;100.00;102105.56;5096414;28;20035;-76
2024/02/18 10:01:28;;;;;;;6.57;1.20;;;;;;;11.69;100.00;102102.81;5096650;28;20031;-76
2024/02/18 10:03:54;;;;;;;4.47;1.52;;;;;;;11.73;100.00;102110.47;5096631;28;20027;-76
2024/02/18 10:06:20;;;;;;;4.47;1.02;;;;;;;11.81;100.00;102120.50;5079909;28;20042;-76
2024/02/18 10:08:54;;;;;;;2.55;0.60;;;;;;;11.78;100.00;102132.41;5079792;28;20471;-76
2024/02/18 10:11:21;;;;;;;1.70;0.95;;;;;;;11.51;100.00;102130.56;5081379;28;20035;-76
2024/02/18 10:13:53;;;;;;;1.05;0.60;;;;;;;11.39;100.00;102134.44;5062946;28;20040;-76
2024/02/18 10:16:18;;;;;;;7.30;1.52;;;;;;;11.38;100.00;102138.13;5080086;28;20391;-76
2024/02/18 10:18:45;;;;;;;2.38;1.40;;;;;;;11.68;100.00;102128.91;5112984;28;20043;-76
2024/02/18 10:21:14;;;;;;;1.90;0.98;;;;;;;13.53;100.00;102144.41;5079597;28;20096;-76
2024/02/18 10:23:39;;;;;;;3.30;0.68;;;;;;;13.73;100.00;102142.28;5080093;28;20086;-76
2024/02/18 10:26:08;;;;;;;0.70;0.70;;;;;;;13.32;100.00;102144.81;5079624;28;20044;-76
2024/02/18 10:28:37;;;;;;;1.42;0.85;;;;;;;12.90;100.00;102155.44;5079892;28;20126;-76
2024/02/18 10:31:04;;;;;;;4.68;0.95;;;;;;;13.33;100.00;102165.38;5113159;28;20035;-76
2024/02/18 10:33:39;;;;;;;3.80;1.02;;;;;;;13.93;100.00;102166.38;5113080;28;20031;-76
2024/02/18 10:36:13;;;;;;;3.97;1.45;;;;;;;14.01;100.00;102169.09;5113632;28;20107;-76
2024/02/18 10:38:51;;;;;;;4.22;1.30;;;;;;;14.98;100.00;102172.13;5113565;28;20036;-76
2024/02/18 10:41:19;;;;;;;2.15;0.68;;;;;;;14.81;100.00;102161.31;5113040;28;20047;-76
2024/02/18 10:43:52;;;;;;;3.55;0.80;;;;;;;14.78;100.00;102172.47;5113108;28;20032;-76
2024/02/18 10:46:23;;;;;;;1.00;0.63;;;;;;;14.07;100.00;102181.97;5079306;28;20040;-76
2024/02/18 10:48:56;;;;;;;11.93;1.65;;;;;;;13.57;100.00;102185.47;5112248;28;20032;-76
2024/02/18 10:51:34;;;;;;;6.15;1.77;;;;;;;13.49;100.00;102199.75;5078471;28;20048;-76
2024/02/18 10:54:27;;;;;;;5.03;1.67;;;;;;;13.32;100.00;102203.38;5078794;28;20035;-76
2024/02/18 10:56:53;;;;;;;;;;;;;;;13.09;100.00;102203.00;5113150;28;20482;-76
2024/02/18 10:59:32;;;;;;;10.93;1.65;;;;;;;12.90;100.00;102204.03;5095462;28;19930;-76
2024/02/18 11:02:17;;;;;;;6.80;1.95;;;;;;;12.86;100.00;102199.94;5078924;28;20061;-76
2024/02/18 11:04:43;;;;;;;5.72;1.55;;;;;;;12.76;100.00;102200.91;5095458;28;20058;-76
2024/02/18 11:07:09;;;;;;;4.68;1.08;;;;;;;12.62;100.00;102212.25;5079022;28;20463;-76
2024/02/18 11:09:35;;;;;;;2.10;0.73;;;;;;;12.57;100.00;102221.78;5095728;28;20081;-76
2024/02/18 11:12:02;;;;;;;5.22;1.20;;;;;;;12.47;100.00;102236.19;5099382;28;20023;-76
2024/02/18 11:14:29;;;;;;;3.95;1.20;;;;;;;12.46;100.00;102239.91;5099701;28;20042;-76